Lilly Dale, Indiana
Current Conditions -  °F | °C
As of 12:15 PM on Thursday 18 Dec 2014 (Local Time) from KHNB Reporting Station
Overcast Overcast  
Wind Chill: 32°   Ceiling: 1600
Heat Index: 32°   Visibility: 8mi
Dew Point: 23°   Wind: 0mph
Humidity: 69%   Direction: NA
Pressure: 30.26"   Gusts: NA
Location:  38.0217°N, 86.7099°W
Report Text: KHNB 181815Z AUTO 00000KT 8SM BKN016 OVC060 00/M05 A3026 RMK AO1
Loading
Personal Weather Stations






























Interactive Weather Map New forecast layout! Learn more

10-Day Weather Forecast

Advertisements
Track Severe Weather on mobile